Time;durP1;ratioP1;P1;durP2;ratioP2;P2;SDS_P1;SDS_P2;PMS_P1;PMS_P2;Temp;Humidity;BMP_temperature;BMP_pressure;BME280_temperature;BME280_humidity;BME280_pressure;Samples;Min_cycle;Max_cycle;Signal;HPM_P1;HPM_P2
2022/05/21 00:02:02;;;;;;;2.00;1.73;;;17.10;97.30;;;;;;4991599;28;20181;-87
2022/05/21 00:04:28;;;;;;;5.87;1.80;;;17.00;97.30;;;;;;4991605;28;20698;-86
2022/05/21 00:06:53;;;;;;;2.00;1.80;;;17.10;97.30;;;;;;4991854;28;20433;-85
2022/05/21 00:09:19;;;;;;;4.83;1.60;;;17.00;97.30;;;;;;4991716;28;20221;-88
2022/05/21 00:11:45;;;;;;;10.53;2.20;;;17.00;97.30;;;;;;4991549;28;20177;-88
2022/05/21 00:14:11;;;;;;;6.30;1.90;;;17.00;97.30;;;;;;4991423;28;20198;-83
2022/05/21 00:16:37;;;;;;;2.37;1.73;;;17.00;97.30;;;;;;4991327;28;20642;-87
2022/05/21 00:19:02;;;;;;;2.40;2.20;;;17.00;97.30;;;;;;4991245;28;20469;-86
2022/05/21 00:21:28;;;;;;;3.20;2.37;;;17.00;97.30;;;;;;4991202;28;20213;-88
2022/05/21 00:23:54;;;;;;;7.40;2.40;;;17.00;97.30;;;;;;4991397;28;20204;-87
2022/05/21 00:26:21;;;;;;;2.33;2.00;;;17.00;97.30;;;;;;4991124;28;20247;-86
2022/05/21 00:28:47;;;;;;;3.73;2.60;;;17.00;97.30;;;;;;4991011;28;20228;-85
2022/05/21 00:31:15;;;;;;;16.73;3.00;;;17.00;97.30;;;;;;4992429;28;20412;-86
2022/05/21 00:33:42;;;;;;;4.57;3.10;;;17.00;97.30;;;;;;4990625;28;20460;-87
2022/05/21 00:36:08;;;;;;;2.90;2.40;;;17.00;97.30;;;;;;4992325;28;20746;-86
2022/05/21 00:38:35;;;;;;;4.97;3.33;;;17.00;97.30;;;;;;4991111;28;20784;-87
2022/05/21 00:41:01;;;;;;;4.37;2.80;;;17.00;97.30;;;;;;4990783;28;20417;-86
2022/05/21 00:43:46;;;;;;;3.90;3.00;;;16.90;97.30;;;;;;4990978;28;20428;-86
2022/05/21 00:46:14;;;;;;;6.53;2.90;;;16.80;97.30;;;;;;4990960;28;20449;-86
2022/05/21 00:48:41;;;;;;;10.63;3.00;;;16.80;97.30;;;;;;4990854;28;20788;-87
2022/05/21 00:51:15;;;;;;;4.70;2.70;;;16.80;97.30;;;;;;4990828;28;20444;-85
2022/05/21 00:53:43;;;;;;;3.53;2.63;;;16.70;97.30;;;;;;4990483;28;20467;-88
2022/05/21 00:56:11;;;;;;;3.00;2.80;;;16.70;97.30;;;;;;4990484;28;20452;-88
2022/05/21 01:01:24;;;;;;;10.13;2.20;;;16.70;97.30;;;;;;4992799;28;20395;-87
2022/05/21 01:03:49;;;;;;;3.57;2.40;;;16.70;97.30;;;;;;4990921;28;21109;-86
2022/05/21 01:06:16;;;;;;;2.47;2.03;;;16.70;97.30;;;;;;4990723;28;20520;-87
2022/05/21 01:08:41;;;;;;;2.90;2.20;;;16.60;97.30;;;;;;4990318;28;20205;-86
2022/05/21 01:11:12;;;;;;;7.33;2.13;;;16.60;97.30;;;;;;4990310;28;20499;-86
2022/05/21 01:13:40;;;;;;;2.50;1.90;;;16.60;97.30;;;;;;4990190;28;20743;-86
2022/05/21 01:16:07;;;;;;;5.07;2.53;;;16.60;97.30;;;;;;4991519;28;20855;-86
2022/05/21 01:18:32;;;;;;;2.63;2.00;;;16.60;97.30;;;;;;4990076;28;20417;-86
2022/05/21 01:21:00;;;;;;;1.90;1.77;;;16.60;97.30;;;;;;4990468;28;20950;-87
2022/05/21 01:23:27;;;;;;;2.73;1.83;;;16.60;97.30;;;;;;4990349;28;20184;-86
2022/05/21 01:25:54;;;;;;;3.50;2.20;;;16.60;97.30;;;;;;4989632;28;20481;-87
2022/05/21 01:28:22;;;;;;;5.37;2.03;;;16.50;97.30;;;;;;4990206;28;20468;-87
2022/05/21 01:30:56;;;;;;;4.43;1.70;;;16.40;97.30;;;;;;4990062;28;20484;-88
2022/05/21 01:33:29;;;;;;;2.53;1.80;;;16.40;97.30;;;;;;4990177;28;20456;-87
2022/05/21 01:35:55;;;;;;;4.40;1.40;;;16.30;97.30;;;;;;4990148;28;20867;-88
2022/05/21 01:38:22;;;;;;;2.53;1.70;;;16.20;97.30;;;;;;4991195;28;20505;-85
2022/05/21 01:40:48;;;;;;;2.70;1.70;;;16.00;97.30;;;;;;4989610;28;20675;-87
2022/05/21 01:45:58;;;;;;;4.93;1.80;;;15.80;97.30;;;;;;4990557;28;20444;-87
2022/05/21 01:48:26;;;;;;;2.87;2.10;;;15.70;97.30;;;;;;4990157;28;20417;-86
2022/05/21 01:50:53;;;;;;;2.90;2.10;;;15.70;97.30;;;;;;4990232;28;20443;-86
2022/05/21 01:53:21;;;;;;;2.53;2.13;;;15.60;97.30;;;;;;4990514;28;20555;-88
2022/05/21 01:55:47;;;;;;;3.60;2.47;;;15.60;97.30;;;;;;4989784;28;20461;-87
2022/05/21 01:58:14;;;;;;;3.13;2.47;;;15.50;97.30;;;;;;4989650;28;20476;-87
2022/05/21 02:00:40;;;;;;;6.30;2.90;;;15.40;97.30;;;;;;4989901;28;20431;-87
2022/05/21 02:03:10;;;;;;;2.77;2.23;;;15.30;97.30;;;;;;4990262;28;20512;-83
2022/05/21 02:05:36;;;;;;;4.00;2.63;;;15.20;97.30;;;;;;4989766;28;20820;-86
2022/05/21 02:08:02;;;;;;;6.23;2.70;;;15.10;97.30;;;;;;4991112;28;20586;-85
2022/05/21 02:10:28;;;;;;;8.40;3.30;;;15.10;97.30;;;;;;4989652;28;20464;-84
2022/05/21 02:12:54;;;;;;;9.83;3.10;;;15.10;97.30;;;;;;4989555;28;20488;-86
2022/05/21 02:15:20;;;;;;;11.37;4.00;;;15.10;97.30;;;;;;4989465;28;20194;-85
2022/05/21 02:17:45;;;;;;;5.23;3.20;;;15.10;97.30;;;;;;4989792;28;20178;-87
2022/05/21 02:20:11;;;;;;;7.90;3.57;;;15.10;97.30;;;;;;4989539;28;20949;-86
2022/05/21 02:22:36;;;;;;;4.87;3.40;;;15.00;97.30;;;;;;4989882;28;20177;-88
2022/05/21 02:25:07;;;;;;;5.10;3.10;;;15.00;97.30;;;;;;4989365;28;20309;-86
2022/05/21 02:27:32;;;;;;;5.90;4.40;;;15.00;97.30;;;;;;4989395;28;20569;-87
2022/05/21 02:29:58;;;;;;;6.00;3.90;;;15.00;97.30;;;;;;4989434;28;20653;-86
2022/05/21 02:32:24;;;;;;;6.97;4.40;;;15.00;97.30;;;;;;4989524;28;20194;-85
2022/05/21 02:34:49;;;;;;;6.30;4.00;;;15.00;97.30;;;;;;4989556;28;20170;-82
2022/05/21 02:39:59;;;;;;;9.60;4.20;;;14.90;97.30;;;;;;4991536;28;20205;-85
2022/05/21 02:45:28;;;;;;;7.00;4.87;;;14.90;97.30;;;;;;4991162;28;20170;-84
2022/05/21 02:47:54;;;;;;;6.60;4.70;;;14.90;97.30;;;;;;4989835;28;20472;-85
2022/05/21 02:50:23;;;;;;;8.87;4.73;;;14.90;97.30;;;;;;4989265;28;20429;-87
2022/05/21 02:52:49;;;;;;;6.97;4.47;;;14.90;97.30;;;;;;4989829;28;20460;-86
2022/05/21 02:55:15;;;;;;;7.70;4.50;;;14.80;97.30;;;;;;4990513;28;20448;-84
2022/05/21 02:57:42;;;;;;;6.90;4.20;;;14.80;97.30;;;;;;4990640;28;20240;-85
2022/05/21 03:00:16;;;;;;;9.10;4.47;;;14.80;97.30;;;;;;4992913;28;20414;-88
2022/05/21 03:02:41;;;;;;;8.13;4.73;;;14.80;97.30;;;;;;4994547;28;20881;-85
2022/05/21 03:05:08;;;;;;;8.53;4.20;;;14.70;97.30;;;;;;4994114;28;20534;-85
2022/05/21 03:07:42;;;;;;;5.30;4.10;;;14.60;97.30;;;;;;4992763;28;20178;-86
2022/05/21 03:10:22;;;;;;;10.47;4.17;;;14.60;97.30;;;;;;4992394;28;20434;-87
2022/05/21 03:12:49;;;;;;;9.30;4.37;;;14.60;97.30;;;;;;4992890;28;20541;-86
2022/05/21 03:15:16;;;;;;;8.70;4.40;;;14.60;97.30;;;;;;4992480;28;20513;-84
2022/05/21 03:17:42;;;;;;;7.20;3.83;;;14.60;97.30;;;;;;4992758;28;20421;-86
2022/05/21 03:20:08;;;;;;;6.20;4.17;;;14.50;97.30;;;;;;4993041;28;20409;-86
2022/05/21 03:22:33;;;;;;;7.57;4.37;;;14.50;97.30;;;;;;4992713;28;20181;-87
2022/05/21 03:24:59;;;;;;;6.83;4.50;;;14.50;97.30;;;;;;4992540;28;20476;-85
2022/05/21 03:27:24;;;;;;;6.00;4.07;;;14.50;97.30;;;;;;4992366;28;20173;-86
2022/05/21 03:29:50;;;;;;;11.27;4.90;;;14.50;97.30;;;;;;4992464;28;20272;-83
2022/05/21 03:32:16;;;;;;;7.40;4.33;;;14.50;97.30;;;;;;4992899;28;20181;-87
2022/05/21 03:34:42;;;;;;;8.77;4.90;;;14.50;97.30;;;;;;4992903;28;20440;-85
2022/05/21 03:37:07;;;;;;;5.73;3.97;;;14.50;97.30;;;;;;4992520;28;20201;-87
2022/05/21 03:39:33;;;;;;;8.83;4.80;;;14.50;97.30;;;;;;4993571;28;20170;-85
2022/05/21 03:41:58;;;;;;;10.03;3.87;;;14.50;97.30;;;;;;4991978;28;20182;-85
2022/05/21 03:44:25;;;;;;;9.03;4.57;;;14.50;97.30;;;;;;4991876;28;20181;-84
2022/05/21 03:46:51;;;;;;;7.40;3.67;;;14.50;97.30;;;;;;4991925;28;20702;-84
2022/05/21 03:49:17;;;;;;;6.07;3.90;;;14.50;97.30;;;;;;4991958;28;20420;-85
2022/05/21 03:51:43;;;;;;;4.93;3.00;;;14.40;97.30;;;;;;4991962;28;20185;-85
2022/05/21 03:54:09;;;;;;;4.00;3.20;;;14.40;97.30;;;;;;4991963;28;20252;-85
2022/05/21 03:56:35;;;;;;;6.00;3.63;;;14.30;97.30;;;;;;4991799;28;20429;-86
2022/05/21 03:59:01;;;;;;;3.80;2.87;;;14.30;97.30;;;;;;4991631;28;20181;-84
2022/05/21 04:01:26;;;;;;;4.30;2.90;;;14.30;97.30;;;;;;4991795;28;20413;-84
2022/05/21 04:03:54;;;;;;;5.73;2.60;;;14.30;97.30;;;;;;4992801;28;20174;-85
2022/05/21 04:06:21;;;;;;;5.10;2.87;;;14.30;97.30;;;;;;4992976;28;20214;-84
2022/05/21 04:08:47;;;;;;;4.10;2.30;;;14.30;97.30;;;;;;4990967;28;20425;-85
2022/05/21 04:11:12;;;;;;;3.83;2.20;;;14.20;97.30;;;;;;4991216;28;20855;-85
2022/05/21 04:13:38;;;;;;;2.90;2.30;;;14.20;97.30;;;;;;4991820;28;20609;-85
2022/05/21 04:16:04;;;;;;;7.10;2.60;;;14.20;97.30;;;;;;4991858;28;20609;-85
2022/05/21 04:18:29;;;;;;;5.07;2.40;;;14.20;97.30;;;;;;4992266;28;20174;-84
2022/05/21 04:20:55;;;;;;;5.70;2.60;;;14.10;97.30;;;;;;4991634;28;20178;-84
2022/05/21 04:23:20;;;;;;;3.73;2.80;;;14.20;97.30;;;;;;4992095;28;20178;-85
2022/05/21 04:25:47;;;;;;;4.23;2.97;;;14.10;97.30;;;;;;4991991;28;20229;-84
2022/05/21 04:28:13;;;;;;;4.10;2.43;;;14.10;97.30;;;;;;4991324;28;20188;-84
2022/05/21 04:30:39;;;;;;;3.13;2.50;;;14.00;97.30;;;;;;4991542;28;20417;-85
2022/05/21 04:33:05;;;;;;;5.10;3.23;;;14.10;97.30;;;;;;4992118;28;20452;-84
2022/05/21 04:38:16;;;;;;;6.00;2.80;;;14.00;97.30;;;;;;4992378;28;20408;-85
2022/05/21 04:40:42;;;;;;;3.20;2.47;;;14.00;97.30;;;;;;4991048;28;20729;-84
2022/05/21 04:43:08;;;;;;;4.80;2.60;;;14.00;97.30;;;;;;4991233;28;20443;-84
2022/05/21 04:45:33;;;;;;;3.43;2.77;;;14.10;97.30;;;;;;4991108;28;20390;-84
2022/05/21 04:48:06;;;;;;;5.67;2.57;;;14.10;97.30;;;;;;4991956;28;20452;-84
2022/05/21 04:50:35;;;;;;;3.17;2.30;;;14.10;97.30;;;;;;4992664;28;20644;-84
2022/05/21 04:53:01;;;;;;;4.73;2.77;;;14.10;97.30;;;;;;4991200;28;21090;-84
2022/05/21 04:55:27;;;;;;;3.17;2.67;;;14.10;97.30;;;;;;4992067;28;20524;-83
2022/05/21 04:57:52;;;;;;;5.53;2.90;;;14.10;97.30;;;;;;4992153;28;20177;-84
2022/05/21 05:00:18;;;;;;;5.77;2.70;;;14.10;97.30;;;;;;4992269;28;20177;-88
2022/05/21 05:02:44;;;;;;;6.80;2.80;;;14.10;97.30;;;;;;4991615;28;20185;-89
2022/05/21 05:05:10;;;;;;;6.20;2.80;;;14.20;97.30;;;;;;4989790;28;20558;-89
2022/05/21 05:07:38;;;;;;;5.00;2.87;;;14.20;97.30;;;;;;4990239;28;20418;-89
2022/05/21 05:10:05;;;;;;;3.97;3.00;;;14.20;97.30;;;;;;4990736;28;20419;-89
2022/05/21 05:12:31;;;;;;;7.70;3.67;;;14.30;97.30;;;;;;4990737;28;20478;-88
2022/05/21 05:14:57;;;;;;;11.23;3.30;;;14.30;97.30;;;;;;4990515;28;20452;-88
2022/05/21 05:17:24;;;;;;;7.00;3.07;;;14.30;97.30;;;;;;4989877;28;20500;-87
2022/05/21 05:19:50;;;;;;;6.00;2.57;;;14.40;97.30;;;;;;4990068;28;20421;-89
2022/05/21 05:22:16;;;;;;;6.90;2.60;;;14.40;97.30;;;;;;4989866;28;20429;-88
2022/05/21 05:24:42;;;;;;;5.07;2.57;;;14.40;97.30;;;;;;4989760;28;20970;-86
2022/05/21 05:27:08;;;;;;;5.13;2.50;;;14.30;97.30;;;;;;4989864;28;20202;-88
2022/05/21 05:29:34;;;;;;;8.60;3.13;;;14.30;97.30;;;;;;4989847;28;20181;-87
2022/05/21 05:31:59;;;;;;;5.73;2.70;;;14.30;97.30;;;;;;4990136;28;20182;-88
2022/05/21 05:34:25;;;;;;;5.10;2.60;;;14.20;97.30;;;;;;4989653;28;20472;-87
2022/05/21 05:36:51;;;;;;;6.20;2.50;;;14.20;97.30;;;;;;4989605;28;20194;-88
2022/05/21 05:39:17;;;;;;;8.33;2.27;;;14.10;97.30;;;;;;4990152;28;20193;-88
2022/05/21 05:41:43;;;;;;;5.07;2.80;;;14.10;97.30;;;;;;4989712;28;21116;-87
2022/05/21 05:44:10;;;;;;;6.57;2.70;;;14.10;97.30;;;;;;4989739;28;20432;-88
2022/05/21 05:46:36;;;;;;;3.60;2.30;;;14.10;97.30;;;;;;4989693;28;20231;-88
2022/05/21 05:49:02;;;;;;;3.80;2.20;;;14.20;97.30;;;;;;4989503;28;20429;-88
2022/05/21 05:51:28;;;;;;;10.40;2.30;;;14.20;97.30;;;;;;4989785;28;20810;-87
2022/05/21 05:53:54;;;;;;;5.73;3.10;;;14.30;97.30;;;;;;4990797;28;20457;-88
2022/05/21 05:56:21;;;;;;;7.17;4.03;;;14.30;97.30;;;;;;4989791;28;20688;-88
2022/05/21 06:01:31;;;;;;;5.50;2.40;;;14.40;97.30;;;;;;4991661;28;20913;-88
2022/05/21 06:03:57;;;;;;;4.40;2.27;;;14.40;97.30;;;;;;4990096;28;20425;-88
2022/05/21 06:06:23;;;;;;;2.47;2.00;;;14.40;97.30;;;;;;4989997;28;20213;-88
2022/05/21 06:08:51;;;;;;;4.57;2.13;;;14.40;97.30;;;;;;4989562;28;20210;-87
2022/05/21 06:11:17;;;;;;;4.53;2.30;;;14.40;97.30;;;;;;4989675;28;20416;-87
2022/05/21 06:13:44;;;;;;;3.53;2.40;;;14.40;97.30;;;;;;4990762;28;20464;-88
2022/05/21 06:16:10;;;;;;;4.80;2.47;;;14.40;97.30;;;;;;4989566;28;20473;-87
2022/05/21 06:18:36;;;;;;;2.73;2.20;;;14.50;97.30;;;;;;4990065;28;20425;-88
2022/05/21 06:21:04;;;;;;;3.50;2.60;;;14.50;97.30;;;;;;4989489;28;20431;-89
2022/05/21 06:23:33;;;;;;;3.90;2.50;;;14.60;97.30;;;;;;4989152;28;20284;-87
2022/05/21 06:26:00;;;;;;;3.00;2.20;;;14.60;97.30;;;;;;4989105;28;20476;-87
2022/05/21 06:28:27;;;;;;;5.63;3.03;;;14.70;97.30;;;;;;4989318;28;20513;-89
2022/05/21 06:30:53;;;;;;;6.77;3.40;;;14.60;97.00;;;;;;4989289;28;21102;-88
2022/05/21 06:33:22;;;;;;;4.80;2.87;;;14.60;97.20;;;;;;4991485;28;20471;-88
2022/05/21 06:35:50;;;;;;;4.80;2.97;;;14.60;97.30;;;;;;4992989;28;20236;-88
2022/05/21 06:38:16;;;;;;;7.17;3.03;;;14.70;97.10;;;;;;4993048;28;20930;-87
2022/05/21 06:40:42;;;;;;;8.57;3.00;;;14.70;97.10;;;;;;4994392;28;20412;-87
2022/05/21 06:43:07;;;;;;;5.70;3.00;;;14.60;97.20;;;;;;4994585;28;20501;-87
2022/05/21 06:45:34;;;;;;;4.43;3.10;;;14.70;97.00;;;;;;4993122;28;20197;-89
2022/05/21 06:48:09;;;;;;;3.87;2.80;;;14.80;96.80;;;;;;4993422;28;20185;-88
2022/05/21 06:50:38;;;;;;;5.93;3.53;;;14.80;96.60;;;;;;4993112;28;20420;-88
2022/05/21 06:53:04;;;;;;;5.70;3.27;;;14.90;97.00;;;;;;4992997;28;20494;-87
2022/05/21 06:55:30;;;;;;;4.50;3.00;;;15.00;95.90;;;;;;4993175;28;20441;-87
2022/05/21 06:57:56;;;;;;;4.07;3.30;;;15.00;95.80;;;;;;4992688;28;20425;-88
2022/05/21 07:00:22;;;;;;;3.57;3.33;;;15.10;95.60;;;;;;4992781;28;20471;-86
2022/05/21 07:02:53;;;;;;;9.23;3.93;;;15.20;95.30;;;;;;4993771;28;20216;-86
2022/05/21 07:08:13;;;;;;;7.90;3.20;;;15.30;94.80;;;;;;4994203;28;20824;-86
2022/05/21 07:10:39;;;;;;;5.93;3.37;;;15.40;94.80;;;;;;4992836;28;20420;-85
2022/05/21 07:13:04;;;;;;;5.60;3.30;;;15.40;94.40;;;;;;4992926;28;20476;-88
2022/05/21 07:15:30;;;;;;;4.23;2.90;;;15.50;94.50;;;;;;4993136;28;20483;-85
2022/05/21 07:18:00;;;;;;;3.17;2.60;;;15.60;94.00;;;;;;4992841;28;20170;-85
2022/05/21 07:20:27;;;;;;;7.53;2.90;;;15.60;94.00;;;;;;4992308;28;20181;-85
2022/05/21 07:22:52;;;;;;;4.87;2.60;;;15.70;93.70;;;;;;4995349;28;20421;-87
2022/05/21 07:25:23;;;;;;;9.57;2.73;;;15.80;94.30;;;;;;4994283;28;20551;-86
2022/05/21 07:27:49;;;;;;;3.87;2.87;;;15.90;94.00;;;;;;4994779;28;20217;-86
2022/05/21 07:30:15;;;;;;;4.83;3.30;;;16.00;93.60;;;;;;4992198;28;20998;-85
2022/05/21 07:32:41;;;;;;;6.93;2.77;;;16.00;92.30;;;;;;4992827;28;20707;-85
2022/05/21 07:35:11;;;;;;;5.77;2.77;;;16.10;91.80;;;;;;4992150;28;20173;-87
2022/05/21 07:37:36;;;;;;;6.03;3.40;;;16.10;92.70;;;;;;4992288;28;20738;-87
2022/05/21 07:40:03;;;;;;;6.20;2.83;;;16.20;91.20;;;;;;4992123;28;20437;-84
2022/05/21 07:42:29;;;;;;;5.30;2.67;;;16.30;91.90;;;;;;4992000;28;20605;-85
2022/05/21 07:44:56;;;;;;;2.43;2.17;;;16.30;90.90;;;;;;4991065;28;20422;-85
2022/05/21 07:47:24;;;;;;;3.10;2.37;;;16.30;90.80;;;;;;4992348;28;20679;-85
2022/05/21 07:49:51;;;;;;;5.20;3.00;;;16.30;90.70;;;;;;4992801;28;20429;-86
2022/05/21 07:52:18;;;;;;;4.20;2.43;;;16.30;91.20;;;;;;4992420;28;20409;-86
2022/05/21 07:54:43;;;;;;;4.13;2.80;;;16.30;91.10;;;;;;4991812;28;20468;-87
2022/05/21 07:57:09;;;;;;;5.17;3.27;;;16.20;91.40;;;;;;4992188;28;20447;-87
2022/05/21 07:59:35;;;;;;;5.00;3.43;;;16.10;91.20;;;;;;4991821;28;20178;-87
2022/05/21 08:02:00;;;;;;;6.97;4.13;;;16.10;91.30;;;;;;4992047;28;20188;-86
2022/05/21 08:04:26;;;;;;;4.07;3.23;;;16.20;91.00;;;;;;4991972;28;20186;-86
2022/05/21 08:06:51;;;;;;;4.03;3.40;;;16.30;91.50;;;;;;4992123;28;20202;-88
2022/05/21 08:09:17;;;;;;;4.30;3.10;;;16.40;91.10;;;;;;4992122;28;20196;-85
2022/05/21 08:11:43;;;;;;;3.27;2.57;;;16.50;90.70;;;;;;4992327;28;20236;-87
2022/05/21 08:14:08;;;;;;;5.90;2.50;;;16.70;90.50;;;;;;4992386;28;20735;-85
2022/05/21 08:16:34;;;;;;;6.63;3.07;;;16.80;89.90;;;;;;4991420;28;20202;-87
2022/05/21 08:19:01;;;;;;;3.20;3.00;;;16.80;89.90;;;;;;4991729;28;20185;-86
2022/05/21 08:21:27;;;;;;;4.27;3.17;;;16.70;89.50;;;;;;4991941;28;20413;-86
2022/05/21 08:29:22;;;;;;;4.67;3.67;;;16.70;90.40;;;;;;4993460;28;20412;-85
2022/05/21 08:31:47;;;;;;;4.70;3.63;;;16.70;91.50;;;;;;4991794;28;20417;-86
2022/05/21 08:34:13;;;;;;;4.30;3.53;;;16.80;91.10;;;;;;4992512;28;20587;-87
2022/05/21 08:36:38;;;;;;;4.30;3.40;;;16.80;91.00;;;;;;4991965;28;20194;-84
2022/05/21 08:39:05;;;;;;;5.57;3.43;;;16.90;90.60;;;;;;4991747;28;20171;-86
2022/05/21 08:41:33;;;;;;;4.50;3.03;;;17.00;90.20;;;;;;4991376;28;20170;-87
2022/05/21 08:44:05;;;;;;;4.03;3.60;;;17.00;91.10;;;;;;4991431;28;20503;-84
2022/05/21 08:47:00;;;;;;;5.47;3.90;;;17.00;91.10;;;;;;4991952;28;20449;-86
2022/05/21 08:49:37;;;;;;;5.33;4.00;;;17.20;90.50;;;;;;4991507;28;20445;-84
2022/05/21 08:52:18;;;;;;;7.33;4.30;;;17.20;90.40;;;;;;4991335;28;21056;-83
2022/05/21 08:54:46;;;;;;;7.47;4.57;;;17.00;90.60;;;;;;4992137;28;20919;-85
2022/05/21 08:57:52;;;;;;;5.63;3.93;;;17.00;91.30;;;;;;4991539;28;20441;-84
2022/05/21 09:00:30;;;;;;;10.73;4.70;;;17.00;91.80;;;;;;4931817;29;20503;-81
2022/05/21 09:02:57;;;;;;;7.57;4.30;;;17.00;91.40;;;;;;4933896;29;20420;-83
2022/05/21 09:05:23;;;;;;;4.10;3.60;;;17.10;90.80;;;;;;4958061;28;20440;-82
2022/05/21 09:07:51;;;;;;;5.20;3.33;;;17.20;91.20;;;;;;4993512;28;20433;-83
2022/05/21 09:10:29;;;;;;;6.70;3.70;;;17.30;91.60;;;;;;4993594;28;20997;-83
2022/05/21 09:13:16;;;;;;;4.40;3.40;;;17.50;91.40;;;;;;4995475;28;20868;-82
2022/05/21 09:18:29;;;;;;;4.50;3.20;;;17.50;90.20;;;;;;4996152;28;20679;-82
2022/05/21 09:21:02;;;;;;;7.60;3.10;;;17.60;90.30;;;;;;4994044;28;20455;-83
2022/05/21 09:23:51;;;;;;;3.30;2.23;;;17.70;89.70;;;;;;4995550;28;20416;-81
2022/05/21 09:26:19;;;;;;;2.77;2.27;;;17.90;90.30;;;;;;4995337;28;20460;-85
2022/05/21 09:28:44;;;;;;;3.00;2.70;;;18.10;89.50;;;;;;4995650;28;20412;-81
2022/05/21 09:31:11;;;;;;;5.60;3.03;;;18.10;88.50;;;;;;4994664;28;20413;-81
2022/05/21 09:33:38;;;;;;;6.10;3.00;;;18.20;88.70;;;;;;4994200;28;20580;-80
2022/05/21 09:36:05;;;;;;;4.03;2.80;;;18.10;88.90;;;;;;4992679;28;20433;-82
2022/05/21 09:38:48;;;;;;;4.37;2.30;;;18.10;89.70;;;;;;4994901;28;20802;-81
2022/05/21 09:41:32;;;;;;;6.33;3.00;;;18.10;89.80;;;;;;4991836;28;20976;-83
2022/05/21 09:47:25;;;;;;;5.40;2.90;;;18.30;89.10;;;;;;4995657;28;21023;-81
2022/05/21 09:50:05;;;;;;;3.60;2.83;;;18.30;89.80;;;;;;5001507;28;20997;-80
2022/05/21 09:52:31;;;;;;;4.13;2.47;;;18.40;89.00;;;;;;4994037;28;20639;-80
2022/05/21 09:54:57;;;;;;;3.87;2.90;;;18.40;88.40;;;;;;4993500;28;20422;-81
2022/05/21 09:57:30;;;;;;;5.73;2.40;;;18.60;88.60;;;;;;4995115;28;20427;-81
2022/05/21 10:00:24;;;;;;;6.00;3.40;;;18.70;88.20;;;;;;4996019;28;20170;-83
2022/05/21 10:02:52;;;;;;;5.00;3.00;;;18.60;88.90;;;;;;4995740;28;20484;-81
2022/05/21 10:05:42;;;;;;;3.60;3.40;;;18.50;89.10;;;;;;4993858;28;20969;-81
2022/05/21 10:11:35;;;;;;;4.60;2.87;;;18.20;88.60;;;;;;4936482;29;20410;-83
2022/05/21 10:14:06;;;;;;;4.70;3.40;;;18.10;88.60;;;;;;4996559;28;20457;-82
2022/05/21 10:16:53;;;;;;;9.20;3.10;;;18.00;88.50;;;;;;4998143;28;20424;-86
2022/05/21 10:19:57;;;;;;;4.70;3.20;;;18.00;89.30;;;;;;5000659;28;20404;-81
2022/05/21 10:22:34;;;;;;;4.63;3.00;;;18.00;89.80;;;;;;4997877;28;20408;-79
2022/05/21 10:25:03;;;;;;;5.60;2.80;;;18.30;89.70;;;;;;4996313;28;20619;-81
2022/05/21 10:28:01;;;;;;;5.90;3.10;;;18.50;89.30;;;;;;4996117;28;20420;-82
2022/05/21 10:30:55;;;;;;;3.57;2.57;;;18.50;87.90;;;;;;4996065;28;20413;-83
2022/05/21 10:33:45;;;;;;;7.83;2.80;;;18.40;87.70;;;;;;5014751;28;21059;-81
2022/05/21 10:36:27;;;;;;;6.90;2.67;;;18.30;88.40;;;;;;4994396;28;20479;-84
2022/05/21 10:39:20;;;;;;;4.70;2.70;;;18.40;89.30;;;;;;4975117;28;20737;-83
2022/05/21 10:42:18;;;;;;;3.70;3.03;;;18.70;88.50;;;;;;4979023;28;20401;-78
2022/05/21 10:44:57;;;;;;;4.27;2.50;;;18.90;86.70;;;;;;4975728;28;20432;-83
2022/05/21 10:47:57;;;;;;;8.47;3.03;;;18.90;87.80;;;;;;4976690;28;20409;-82
2022/05/21 10:50:33;;;;;;;5.60;2.90;;;18.90;88.20;;;;;;4980746;28;20420;-81
2022/05/21 10:53:16;;;;;;;8.53;2.90;;;18.90;87.30;;;;;;4977710;28;20460;-83
2022/05/21 10:55:46;;;;;;;3.00;2.37;;;18.90;86.70;;;;;;4975880;28;20442;-83
2022/05/21 10:58:18;;;;;;;6.47;2.77;;;18.70;87.20;;;;;;4979059;28;20417;-84
2022/05/21 11:01:14;;;;;;;3.30;2.70;;;18.70;88.60;;;;;;4977627;28;20841;-83
2022/05/21 11:03:40;;;;;;;5.20;2.53;;;18.90;88.90;;;;;;4979347;28;20429;-82
2022/05/21 11:06:23;;;;;;;4.47;2.60;;;19.10;88.10;;;;;;4978037;28;20437;-82
2022/05/21 11:09:03;;;;;;;2.67;1.97;;;19.30;87.10;;;;;;4978143;28;20179;-84
2022/05/21 11:11:54;;;;;;;3.63;2.70;;;19.40;87.10;;;;;;4976963;28;20422;-83
2022/05/21 11:14:23;;;;;;;3.60;2.10;;;19.20;86.20;;;;;;4975437;28;20853;-83
2022/05/21 11:16:57;;;;;;;6.97;2.93;;;19.10;86.30;;;;;;4974816;28;20449;-83
2022/05/21 11:19:51;;;;;;;5.00;2.70;;;18.90;86.70;;;;;;4974718;28;20421;-85
2022/05/21 11:22:22;;;;;;;4.10;2.57;;;18.80;87.00;;;;;;4976058;28;20402;-82
2022/05/21 11:25:01;;;;;;;5.00;2.57;;;18.70;87.20;;;;;;4973672;28;20872;-84
2022/05/21 11:27:46;;;;;;;7.43;2.40;;;18.50;87.00;;;;;;4974411;28;20422;-87
2022/05/21 11:30:17;;;;;;;3.80;2.40;;;18.50;87.40;;;;;;4974073;28;20421;-84
2022/05/21 11:38:45;;;;;;;2.80;2.10;;;17.80;89.00;;;;;;4995409;28;20389;-83
2022/05/21 11:41:25;;;;;;;7.37;2.50;;;17.70;89.10;;;;;;4993202;28;20421;-84
2022/05/21 11:46:48;;;;;;;2.87;2.67;;;17.50;90.00;;;;;;4995578;28;20479;-84
2022/05/21 11:49:44;;;;;;;6.20;2.30;;;17.40;90.60;;;;;;4993515;28;20421;-84
2022/05/21 11:52:30;;;;;;;5.53;2.57;;;17.60;91.60;;;;;;4994887;28;20489;-85
2022/05/21 11:55:09;;;;;;;6.70;2.07;;;18.10;90.90;;;;;;4986123;28;20468;-83
2022/05/21 11:57:36;;;;;;;3.40;2.47;;;18.40;89.60;;;;;;4995159;28;20425;-83
2022/05/21 12:00:08;;;;;;;2.73;2.03;;;18.80;88.10;;;;;;4994256;28;20417;-83
2022/05/21 12:02:38;;;;;;;4.20;1.97;;;19.00;87.70;;;;;;4993097;28;20429;-83
2022/05/21 12:05:11;;;;;;;6.00;2.63;;;19.10;87.50;;;;;;4993864;28;20790;-86
2022/05/21 12:07:43;;;;;;;5.57;2.10;;;19.00;86.10;;;;;;4991386;28;20428;-85
2022/05/21 12:10:25;;;;;;;4.10;2.00;;;18.90;87.20;;;;;;4993767;28;20456;-84
2022/05/21 12:13:12;;;;;;;2.90;2.03;;;18.90;87.40;;;;;;4991995;28;20456;-86
2022/05/21 12:15:38;;;;;;;3.87;2.17;;;19.10;84.30;;;;;;4993087;28;20472;-84
2022/05/21 12:18:09;;;;;;;3.97;1.90;;;19.40;83.00;;;;;;4995262;28;20421;-82
2022/05/21 12:20:48;;;;;;;2.27;1.80;;;19.70;81.60;;;;;;4993121;28;20432;-83
2022/05/21 12:23:38;;;;;;;5.20;2.03;;;19.90;79.00;;;;;;4994091;28;20784;-81
2022/05/21 12:26:19;;;;;;;5.00;2.10;;;20.10;77.50;;;;;;4992063;28;20476;-83
2022/05/21 12:28:58;;;;;;;3.27;1.77;;;20.00;78.40;;;;;;4994039;28;20428;-83
2022/05/21 12:31:27;;;;;;;2.53;2.00;;;19.70;77.70;;;;;;4993437;28;20475;-83
2022/05/21 12:34:24;;;;;;;4.13;2.20;;;19.60;78.90;;;;;;4993837;28;21046;-83
2022/05/21 12:36:58;;;;;;;2.53;2.07;;;19.50;79.20;;;;;;4995624;28;20441;-83
2022/05/21 12:39:55;;;;;;;10.60;2.10;;;19.50;80.30;;;;;;4993522;28;20434;-84
2022/05/21 12:42:23;;;;;;;4.73;1.90;;;19.60;80.20;;;;;;4992433;28;20821;-83
2022/05/21 12:44:49;;;;;;;4.50;1.90;;;19.70;80.20;;;;;;4994747;28;20417;-83
2022/05/21 12:47:33;;;;;;;3.63;2.60;;;19.70;79.90;;;;;;4994112;28;20443;-82
2022/05/21 12:50:01;;;;;;;3.07;2.10;;;19.70;80.70;;;;;;4993427;28;20776;-84
2022/05/21 12:52:35;;;;;;;4.33;2.37;;;19.70;81.10;;;;;;4993176;28;20848;-84
2022/05/21 12:55:20;;;;;;;3.50;2.50;;;19.90;81.80;;;;;;4992614;28;20476;-82
2022/05/21 12:57:46;;;;;;;3.97;2.43;;;20.20;82.50;;;;;;4992952;28;20405;-84
2022/05/21 13:00:14;;;;;;;10.23;3.00;;;20.60;82.40;;;;;;4992970;28;20416;-84
2022/05/21 13:02:47;;;;;;;3.40;2.17;;;20.80;80.30;;;;;;4991402;28;20436;-85
2022/05/21 13:05:19;;;;;;;5.77;2.10;;;20.90;80.50;;;;;;4992052;28;20960;-84
2022/05/21 13:07:44;;;;;;;3.70;2.27;;;21.00;79.40;;;;;;4992597;28;20413;-85
2022/05/21 13:10:22;;;;;;;4.53;2.70;;;21.10;79.00;;;;;;4991234;28;20427;-89
2022/05/21 13:12:55;;;;;;;4.63;2.50;;;21.30;80.60;;;;;;4990358;28;20220;-87
2022/05/21 13:15:42;;;;;;;5.10;2.60;;;21.40;78.40;;;;;;4990022;28;20444;-88
2022/05/21 13:18:16;;;;;;;3.60;2.60;;;21.50;78.30;;;;;;4990078;28;20957;-87
2022/05/21 13:21:08;;;;;;;4.50;2.33;;;21.30;78.40;;;;;;4990120;28;20945;-88
2022/05/21 13:23:53;;;;;;;4.93;2.20;;;21.20;79.60;;;;;;4991482;28;20444;-88
2022/05/21 13:26:22;;;;;;;4.63;2.40;;;21.10;78.30;;;;;;4991056;28;20480;-88
2022/05/21 13:28:48;;;;;;;5.77;2.40;;;20.90;78.90;;;;;;4989806;28;20428;-88
2022/05/21 13:31:21;;;;;;;4.60;2.83;;;20.70;78.80;;;;;;4990288;28;20451;-88
2022/05/21 13:33:57;;;;;;;6.63;2.33;;;20.70;78.20;;;;;;4990890;28;20461;-89
2022/05/21 13:36:31;;;;;;;4.57;2.30;;;20.50;77.20;;;;;;4989752;28;20431;-86
2022/05/21 13:38:59;;;;;;;6.43;2.63;;;20.40;77.40;;;;;;4990013;28;20448;-86
2022/05/21 13:41:39;;;;;;;3.80;2.10;;;20.20;78.80;;;;;;4990152;28;20786;-85
2022/05/21 13:44:12;;;;;;;8.10;2.67;;;20.50;79.30;;;;;;4990250;28;20470;-87
2022/05/21 13:46:39;;;;;;;4.83;2.77;;;20.50;77.50;;;;;;4990274;28;20447;-87